KNT weather

Kennett Memorial Airport
Kennett, Missouri, United States

Public forecast

Using degrees Fahrenheit for public forecast. Weather courtesy of forecast.io.

Current aviation weather report (METAR) for Kennett Memorial Airport

Retrieved 2019/10/16 06:35 UTC (11 minutes ago):

KTKX 160635Z AUTO 34012G20KT 10SM 16/12 A2992 RMK AO2

Closest aviation forecast (TAF) to Kennett Memorial Airport

Closest forecast is Jonesboro Municipal Airport, 37.9 nm (70.2 km) SW. Retrieved 2019/10/16 06:24 UTC (22 minutes ago):

TAF KJBR 160521Z 1606/1706 35010G15KT P6SM SCT015 BKN040 TEMPO 1606/1608 BKN015 FM161000 34010KT P6SM SKC FM170100 35003KT P6SM SKC